Time;durP1;ratioP1;P1;durP2;ratioP2;P2;SDS_P1;SDS_P2;PMS_P1;PMS_P2;Temp;Humidity;BMP_temperature;BMP_pressure;BME280_temperature;BME280_humidity;BME280_pressure;Samples;Min_cycle;Max_cycle;Signal;HPM_P1;HPM_P2
2024/01/03 00:01:13;;;;;;;0.80;0.40;;;;;;;-143.84;81.93;45195.69;5069193;28;20540;-58
2024/01/03 00:03:40;;;;;;;0.80;0.50;;;;;;;-143.84;81.25;45214.72;5069299;28;20509;-57
2024/01/03 00:06:10;;;;;;;0.80;0.40;;;;;;;-143.84;81.07;45212.84;5068948;28;20444;-57
2024/01/03 00:08:38;;;;;;;0.80;0.40;;;;;;;-143.84;80.50;45201.41;5069291;28;20452;-58
2024/01/03 00:11:05;;;;;;;1.37;0.93;;;;;;;-143.84;80.56;45210.94;5069246;28;20505;-58
2024/01/03 00:14:08;;;;;;;0.80;0.40;;;;;;;-143.84;80.04;45193.78;5069519;28;21011;-57
2024/01/03 00:16:39;;;;;;;1.07;0.87;;;;;;;-143.84;80.02;45180.47;5069625;28;20444;-57
2024/01/03 00:19:15;;;;;;;0.80;0.50;;;;;;;-143.84;79.71;45195.69;5069040;28;20479;-58
2024/01/03 00:21:44;;;;;;;0.80;0.50;;;;;;;-143.84;79.63;45195.69;5069663;28;21040;-58
2024/01/03 00:24:14;;;;;;;0.80;0.70;;;;;;;-143.84;79.05;45199.50;5069533;28;20517;-57
2024/01/03 00:26:42;;;;;;;0.80;0.40;;;;;;;-143.84;78.05;45157.59;5069280;28;20444;-57
2024/01/03 00:29:34;;;;;;;0.80;0.40;;;;;;;-143.84;77.11;45188.06;5069399;28;20448;-57
2024/01/03 00:32:06;;;;;;;0.80;0.40;;;;;;;-143.84;76.75;45197.59;5066587;28;20459;-57
2024/01/03 00:34:42;;;;;;;0.80;0.40;;;;;;;-143.84;76.06;45186.16;5069143;28;20440;-58
2024/01/03 00:37:23;;;;;;;0.80;0.40;;;;;;;-143.84;75.84;45167.13;5069121;28;20451;-58
2024/01/03 00:39:51;;;;;;;0.80;0.40;;;;;;;-143.84;75.19;45216.63;5069417;28;20486;-57
2024/01/03 00:42:18;;;;;;;0.80;0.50;;;;;;;-143.84;75.23;45203.31;5069075;28;20445;-57
2024/01/03 00:44:45;;;;;;;0.80;0.50;;;;;;;-143.84;74.93;45172.84;5068984;28;21265;-58
2024/01/03 00:47:13;;;;;;;0.80;0.40;;;;;;;-143.84;74.65;45226.16;5069015;28;20506;-57
2024/01/03 00:49:41;;;;;;;0.80;0.50;;;;;;;-143.84;73.73;45186.16;5068811;28;21076;-57
2024/01/03 00:52:09;;;;;;;0.80;0.40;;;;;;;-143.84;73.08;45170.94;5069037;28;20441;-57
2024/01/03 00:54:38;;;;;;;0.80;0.50;;;;;;;-143.84;73.39;45167.13;5068719;28;20543;-58
2024/01/03 00:57:05;;;;;;;0.80;0.40;;;;;;;-143.84;73.02;45193.78;5072532;28;20445;-58
2024/01/03 00:59:37;;;;;;;0.80;0.40;;;;;;;-143.84;73.42;45186.16;5072457;28;20476;-57
2024/01/03 01:02:05;;;;;;;0.80;0.50;;;;;;;-143.84;73.22;45184.25;5072780;28;20449;-58
2024/01/03 01:04:33;;;;;;;0.80;0.60;;;;;;;-143.84;73.65;45159.50;5072777;28;20444;-58
2024/01/03 01:07:01;;;;;;;0.80;0.40;;;;;;;-143.84;73.22;45189.97;5072716;28;20436;-57
2024/01/03 01:09:28;;;;;;;0.80;0.50;;;;;;;-143.84;73.73;45188.06;5072384;28;20451;-57
2024/01/03 01:11:57;;;;;;;0.80;0.50;;;;;;;-143.84;73.27;45191.88;5072365;28;20433;-57
2024/01/03 01:14:24;;;;;;;0.80;0.40;;;;;;;-143.84;73.60;45178.56;5072330;28;20722;-57
2024/01/03 01:16:51;;;;;;;0.80;0.40;;;;;;;-143.84;73.23;45188.06;5072545;28;21265;-58
2024/01/03 01:19:18;;;;;;;0.80;0.40;;;;;;;-143.84;73.26;45180.47;5072079;28;20533;-58
2024/01/03 01:21:45;;;;;;;0.80;0.40;;;;;;;-143.84;73.16;45161.41;5071955;28;20957;-58
2024/01/03 01:24:12;;;;;;;0.80;0.40;;;;;;;-143.84;71.80;45199.50;5072596;28;20886;-58
2024/01/03 01:26:39;;;;;;;1.40;1.17;;;;;;;-143.84;71.22;45193.78;5072338;28;20467;-57
2024/01/03 01:29:08;;;;;;;0.80;0.50;;;;;;;-143.84;70.59;45197.59;5071775;28;21005;-58
2024/01/03 01:31:35;;;;;;;0.80;0.50;;;;;;;-143.84;70.82;45188.06;5072605;28;20510;-58
2024/01/03 01:34:02;;;;;;;0.83;0.67;;;;;;;-143.84;69.69;45170.94;5072205;28;20437;-57
2024/01/03 01:36:29;;;;;;;0.83;0.60;;;;;;;-143.84;69.04;45182.38;5072364;28;20994;-58
2024/01/03 01:38:56;;;;;;;0.80;0.40;;;;;;;-143.84;68.98;45199.50;5072370;28;20444;-58
2024/01/03 01:41:23;;;;;;;0.80;0.60;;;;;;;-143.84;69.17;45201.41;5072420;28;20469;-57
2024/01/03 01:43:50;;;;;;;0.80;0.60;;;;;;;-143.84;68.93;45176.66;5071767;28;20441;-57
2024/01/03 01:46:19;;;;;;;0.80;0.50;;;;;;;-143.84;68.93;45174.75;5071905;28;20830;-57
2024/01/03 01:48:47;;;;;;;0.80;0.40;;;;;;;-143.84;69.67;45199.50;5071924;28;20440;-57
2024/01/03 01:51:16;;;;;;;0.80;0.40;;;;;;;-143.84;69.93;45170.94;5071901;28;20452;-57
2024/01/03 01:53:43;;;;;;;0.80;0.43;;;;;;;-143.84;70.07;45178.56;5071575;28;20838;-57
2024/01/03 01:56:12;;;;;;;0.80;0.40;;;;;;;-143.84;70.34;45174.75;5071309;28;20440;-58
2024/01/03 01:58:41;;;;;;;0.80;0.40;;;;;;;-143.84;71.18;45207.13;5071513;28;20502;-57
2024/01/03 02:01:08;;;;;;;0.80;0.40;;;;;;;-143.84;70.57;45207.13;5071483;28;20477;-57
2024/01/03 02:03:39;;;;;;;0.80;0.50;;;;;;;-143.84;71.40;45207.13;5071399;28;20451;-57
2024/01/03 02:06:09;;;;;;;0.80;0.50;;;;;;;-143.84;71.18;45188.06;5071555;28;20440;-58
2024/01/03 02:08:36;;;;;;;0.80;0.50;;;;;;;-143.84;71.67;45199.50;5071702;28;20870;-57
2024/01/03 02:11:04;;;;;;;0.80;0.60;;;;;;;-143.84;72.45;45201.41;5071803;28;20433;-57
2024/01/03 02:13:32;;;;;;;1.30;1.03;;;;;;;-143.84;72.50;45193.78;5071314;28;20499;-57
2024/01/03 02:15:59;;;;;;;0.80;0.47;;;;;;;-143.84;72.82;45170.94;5071580;28;20440;-57
2024/01/03 02:18:27;;;;;;;1.10;0.70;;;;;;;-143.84;73.32;45186.16;5070903;28;20443;-57
2024/01/03 02:20:57;;;;;;;0.80;0.40;;;;;;;-143.84;73.39;45201.41;5071461;28;20486;-57
2024/01/03 02:23:26;;;;;;;1.00;0.70;;;;;;;-143.84;73.98;45224.25;5071263;28;20486;-58
2024/01/03 02:25:53;;;;;;;0.80;0.50;;;;;;;-143.84;74.84;45189.97;5071038;28;20503;-58
2024/01/03 02:28:20;;;;;;;0.80;0.50;;;;;;;-143.84;75.67;45174.75;5071097;28;21119;-58
2024/01/03 02:30:48;;;;;;;0.90;0.73;;;;;;;-143.84;76.81;45199.50;5071104;28;20826;-57
2024/01/03 02:33:16;;;;;;;1.10;0.67;;;;;;;-143.84;76.67;45186.16;5071172;28;20439;-57
2024/01/03 02:35:43;;;;;;;1.60;1.50;;;;;;;-143.84;77.55;45186.16;5070687;28;20448;-58
2024/01/03 02:38:10;;;;;;;2.10;0.80;;;;;;;-143.84;78.28;45207.13;5070890;28;20494;-58
2024/01/03 02:40:38;;;;;;;0.80;0.50;;;;;;;-143.84;78.57;45167.13;5070632;28;20529;-57
2024/01/03 02:43:06;;;;;;;0.80;0.50;;;;;;;-143.84;78.55;45197.59;5070858;28;20506;-58
2024/01/03 02:45:33;;;;;;;1.47;0.60;;;;;;;-143.84;78.73;45191.88;5070942;28;21012;-57
2024/01/03 02:48:00;;;;;;;0.80;0.50;;;;;;;-143.84;78.65;45214.72;5070588;28;20448;-57
2024/01/03 02:50:27;;;;;;;2.20;0.83;;;;;;;-143.84;79.17;45172.84;5070639;28;20440;-58
2024/01/03 02:52:54;;;;;;;0.80;0.50;;;;;;;-143.84;79.13;45191.88;5070593;28;20444;-57
2024/01/03 02:55:22;;;;;;;0.80;0.50;;;;;;;-143.84;79.31;45207.13;5070754;28;20777;-58
2024/01/03 02:57:50;;;;;;;0.80;0.50;;;;;;;-143.84;79.72;45201.41;5070220;28;20436;-58
2024/01/03 03:00:18;;;;;;;0.80;0.50;;;;;;;-143.84;79.73;45197.59;5070397;28;21159;-58
2024/01/03 03:02:44;;;;;;;1.00;0.60;;;;;;;-143.84;79.74;45195.69;5070380;28;20854;-58
2024/01/03 03:05:11;;;;;;;0.80;0.50;;;;;;;-143.84;79.78;45186.16;5070585;28;20540;-57
2024/01/03 03:07:38;;;;;;;0.80;0.47;;;;;;;-143.84;80.06;45199.50;5070089;28;20444;-58
2024/01/03 03:10:10;;;;;;;0.80;0.50;;;;;;;-143.84;80.35;45210.94;5070281;28;20432;-57
2024/01/03 03:12:37;;;;;;;0.87;0.70;;;;;;;-143.84;79.96;45199.50;5070251;28;21349;-58
2024/01/03 03:15:06;;;;;;;0.80;0.50;;;;;;;-143.84;80.79;45197.59;5070480;28;21389;-57
2024/01/03 03:17:33;;;;;;;0.80;0.53;;;;;;;-143.84;80.74;45212.84;5069654;28;21047;-57
2024/01/03 03:20:00;;;;;;;0.97;0.87;;;;;;;-143.84;81.15;45210.94;5069804;28;20546;-57
2024/01/03 03:22:27;;;;;;;0.80;0.50;;;;;;;-143.84;82.42;45191.88;5070309;28;20430;-57
2024/01/03 03:24:55;;;;;;;0.90;0.70;;;;;;;-143.84;81.98;45159.50;5069887;28;20443;-57
2024/01/03 03:27:22;;;;;;;0.80;0.50;;;;;;;-143.84;82.81;45191.88;5069879;28;20444;-58
2024/01/03 03:29:49;;;;;;;1.00;0.70;;;;;;;-143.84;82.90;45178.56;5070116;28;20448;-58
2024/01/03 03:32:18;;;;;;;0.80;0.50;;;;;;;-143.84;83.55;45209.03;5069941;28;20482;-58
2024/01/03 03:34:45;;;;;;;0.80;0.50;;;;;;;-143.84;84.44;45203.31;5070061;28;20443;-57
2024/01/03 03:37:12;;;;;;;0.80;0.60;;;;;;;-143.84;84.14;45188.06;5070120;28;20861;-57
2024/01/03 03:39:39;;;;;;;1.57;1.47;;;;;;;-143.84;84.57;45207.13;5069698;28;20448;-57
2024/01/03 03:42:06;;;;;;;0.80;0.50;;;;;;;-143.84;84.35;45186.16;5069446;28;20494;-57
2024/01/03 03:44:33;;;;;;;0.80;0.40;;;;;;;-143.84;84.45;45197.59;5069699;28;20451;-57
2024/01/03 03:47:01;;;;;;;0.80;0.40;;;;;;;-143.84;84.55;45182.38;5069539;28;20432;-57
2024/01/03 03:49:29;;;;;;;1.50;1.07;;;;;;;-143.84;84.34;45195.69;5069631;28;20505;-57
2024/01/03 03:51:56;;;;;;;0.90;0.80;;;;;;;-143.84;84.70;45207.13;5069853;28;20856;-57
2024/01/03 03:54:23;;;;;;;2.60;1.90;;;;;;;-143.84;84.82;45193.78;5069767;28;20498;-57
2024/01/03 03:56:50;;;;;;;0.80;0.50;;;;;;;-143.84;84.88;45210.94;5069369;28;20490;-57
2024/01/03 03:59:17;;;;;;;0.90;0.80;;;;;;;-143.84;85.60;45170.94;5069534;28;20463;-58
2024/01/03 04:01:49;;;;;;;0.80;0.47;;;;;;;-143.84;85.58;45216.63;5069552;28;20476;-57
2024/01/03 04:04:17;;;;;;;0.80;0.60;;;;;;;-143.84;85.96;45201.41;5069717;28;20433;-57
2024/01/03 04:06:46;;;;;;;0.80;0.50;;;;;;;-143.84;86.53;45180.47;5069684;28;20498;-58
2024/01/03 04:09:13;;;;;;;1.13;1.03;;;;;;;-143.84;86.76;45193.78;5069538;28;20445;-57
2024/01/03 04:11:44;;;;;;;0.80;0.70;;;;;;;-143.84;86.68;45201.41;5069633;28;21054;-57
2024/01/03 04:14:12;;;;;;;1.73;1.13;;;;;;;-143.84;86.54;45214.72;5069589;28;20436;-57
2024/01/03 04:16:39;;;;;;;1.30;0.80;;;;;;;-143.84;86.72;45199.50;5069276;28;20437;-57
2024/01/03 04:19:06;;;;;;;3.73;1.90;;;;;;;-143.84;86.79;45214.72;5069383;28;20483;-58
2024/01/03 04:21:34;;;;;;;3.73;1.23;;;;;;;-143.84;86.81;45243.31;5069396;28;20483;-57
2024/01/03 04:24:02;;;;;;;0.83;0.60;;;;;;;-143.84;86.62;45195.69;5069535;28;20498;-58
2024/01/03 04:26:29;;;;;;;2.50;1.33;;;;;;;-143.84;86.75;45176.66;5069636;28;20456;-57
2024/01/03 04:28:56;;;;;;;0.93;0.83;;;;;;;-143.84;87.06;45184.25;5069934;28;20635;-57
2024/01/03 04:31:23;;;;;;;7.33;1.13;;;;;;;-143.84;87.05;45184.25;5072411;28;20961;-56
2024/01/03 04:33:51;;;;;;;0.80;0.50;;;;;;;-143.84;86.96;45209.03;5073617;28;20514;-57
2024/01/03 04:36:18;;;;;;;1.10;1.00;;;;;;;-143.84;87.54;45216.63;5073413;28;20820;-57
2024/01/03 04:38:45;;;;;;;0.80;0.60;;;;;;;-143.84;88.10;45228.06;5073054;28;20543;-58
2024/01/03 04:41:13;;;;;;;0.87;0.73;;;;;;;-143.84;87.98;45229.97;5073278;28;20985;-57
2024/01/03 04:43:41;;;;;;;2.23;1.27;;;;;;;-143.84;88.17;45195.69;5073610;28;20510;-57
2024/01/03 04:46:08;;;;;;;1.03;0.93;;;;;;;-143.84;88.99;45195.69;5072911;28;20444;-57
2024/01/03 04:48:35;;;;;;;0.80;0.50;;;;;;;-143.84;88.73;45209.03;5073075;28;20432;-57
2024/01/03 04:51:03;;;;;;;2.10;1.17;;;;;;;-143.84;89.24;45199.50;5073350;28;20476;-57
2024/01/03 04:53:31;;;;;;;0.80;0.60;;;;;;;-143.84;90.16;45222.34;5072748;28;20533;-58
2024/01/03 04:55:58;;;;;;;3.90;1.27;;;;;;;-143.84;89.77;45199.50;5072933;28;20505;-58
2024/01/03 04:58:26;;;;;;;1.67;0.70;;;;;;;-143.84;89.91;45195.69;5072976;28;20443;-58
2024/01/03 05:00:54;;;;;;;0.80;0.60;;;;;;;-143.84;89.82;45201.41;5073031;28;20815;-57
2024/01/03 05:03:21;;;;;;;0.80;0.50;;;;;;;-143.84;90.19;45174.75;5072715;28;20452;-58
2024/01/03 05:05:48;;;;;;;0.80;0.50;;;;;;;-143.84;90.11;45186.16;5072184;28;21019;-57
2024/01/03 05:08:15;;;;;;;0.80;0.50;;;;;;;-143.84;90.24;45197.59;5072656;28;20849;-58
2024/01/03 05:10:42;;;;;;;2.50;0.80;;;;;;;-143.84;90.38;45224.25;5072380;28;20431;-58
2024/01/03 05:13:09;;;;;;;0.90;0.73;;;;;;;-143.84;90.11;45209.03;5072625;28;20429;-58
2024/01/03 05:15:38;;;;;;;0.90;0.60;;;;;;;-143.84;90.09;45176.66;5069890;28;20432;-58
2024/01/03 05:18:05;;;;;;;0.80;0.50;;;;;;;-143.84;90.11;45180.47;5072361;28;20448;-58
2024/01/03 05:20:32;;;;;;;0.97;0.77;;;;;;;-143.84;90.00;45205.22;5071893;28;20538;-57
2024/01/03 05:22:59;;;;;;;0.80;0.50;;;;;;;-143.84;90.55;45197.59;5072077;28;20954;-57
2024/01/03 05:25:27;;;;;;;0.80;0.60;;;;;;;-143.84;90.13;45172.84;5072388;28;20447;-58
2024/01/03 05:27:54;;;;;;;0.90;0.57;;;;;;;-143.84;90.68;45170.94;5072253;28;20432;-58
2024/01/03 05:30:21;;;;;;;0.90;0.80;;;;;;;-143.84;90.84;45216.63;5072518;28;20501;-57
2024/01/03 05:32:49;;;;;;;0.80;0.50;;;;;;;-143.84;91.60;45197.59;5072355;28;20795;-57
2024/01/03 05:35:16;;;;;;;0.80;0.60;;;;;;;-143.84;91.68;45197.59;5072334;28;20495;-57
2024/01/03 05:37:44;;;;;;;0.80;0.73;;;;;;;-143.84;91.45;45186.16;5071819;28;20451;-58
2024/01/03 05:40:11;;;;;;;0.90;0.70;;;;;;;-143.84;91.18;45216.63;5071873;28;20907;-57
2024/01/03 05:42:38;;;;;;;2.20;1.10;;;;;;;-143.84;91.63;45178.56;5071110;28;20475;-57
2024/01/03 05:45:06;;;;;;;3.33;0.70;;;;;;;-143.84;91.21;45216.63;5072154;28;20437;-58
2024/01/03 05:47:33;;;;;;;0.80;0.50;;;;;;;-143.84;91.60;45214.72;5072079;28;21153;-58
2024/01/03 05:50:02;;;;;;;0.90;0.70;;;;;;;-143.84;91.49;45178.56;5072020;28;21007;-58
2024/01/03 05:52:29;;;;;;;1.13;0.60;;;;;;;-143.84;91.60;45207.13;5072245;28;20445;-58
2024/01/03 05:54:57;;;;;;;1.60;1.23;;;;;;;-143.84;91.75;45201.41;5071964;28;20445;-58
2024/01/03 05:57:24;;;;;;;4.20;2.10;;;;;;;-143.84;91.43;45205.22;5072221;28;20780;-58
2024/01/03 05:59:51;;;;;;;1.43;0.80;;;;;;;-143.84;91.00;45207.13;5071987;28;20452;-58
2024/01/03 06:02:18;;;;;;;0.80;0.60;;;;;;;-143.84;90.25;45189.97;5071594;28;21043;-58
2024/01/03 06:04:46;;;;;;;0.80;0.60;;;;;;;-143.84;90.26;45201.41;5072135;28;20429;-58
2024/01/03 06:07:14;;;;;;;1.03;0.70;;;;;;;-143.84;90.27;45178.56;5071782;28;20911;-58
2024/01/03 06:09:41;;;;;;;0.97;0.73;;;;;;;-143.84;90.07;45212.84;5071658;28;20449;-58
2024/01/03 06:12:09;;;;;;;1.03;0.53;;;;;;;-143.84;89.81;45197.59;5071917;28;20433;-58
2024/01/03 06:14:36;;;;;;;1.23;1.13;;;;;;;-143.84;89.58;45180.47;5071650;28;20931;-58
2024/01/03 06:17:03;;;;;;;0.80;0.50;;;;;;;-143.84;89.14;45195.69;5071407;28;20566;-58
2024/01/03 06:19:31;;;;;;;5.90;1.73;;;;;;;-143.84;89.24;45191.88;5071359;28;21032;-58
2024/01/03 06:21:58;;;;;;;1.97;0.60;;;;;;;-143.84;88.90;45209.03;5071925;28;20579;-59
2024/01/03 06:24:27;;;;;;;0.93;0.83;;;;;;;-143.84;88.80;45201.41;5072164;28;20441;-58
2024/01/03 06:26:54;;;;;;;16.63;1.23;;;;;;;-143.84;88.70;45203.31;5070475;28;20449;-58
2024/01/03 06:29:21;;;;;;;0.90;0.80;;;;;;;-143.84;88.95;45178.56;5069806;28;20455;-59
2024/01/03 06:31:48;;;;;;;1.10;0.70;;;;;;;-143.84;88.80;45180.47;5069645;28;20445;-58
2024/01/03 06:34:16;;;;;;;1.00;0.60;;;;;;;-143.84;88.72;45172.84;5070332;28;20862;-58
2024/01/03 06:36:43;;;;;;;2.43;1.43;;;;;;;-143.84;88.48;45159.50;5070138;28;20510;-58
2024/01/03 06:39:10;;;;;;;1.70;1.20;;;;;;;-143.84;88.70;45170.94;5070265;28;20858;-58
2024/01/03 06:41:38;;;;;;;0.90;0.70;;;;;;;-143.84;88.50;45201.41;5071065;28;20843;-58
2024/01/03 06:44:06;;;;;;;2.33;1.80;;;;;;;-143.84;87.99;45191.88;5070831;28;20479;-58
2024/01/03 06:46:33;;;;;;;0.90;0.77;;;;;;;-143.84;88.04;45195.69;5071337;28;20863;-58
2024/01/03 06:49:00;;;;;;;0.80;0.77;;;;;;;-143.84;87.73;45180.47;5070672;28;20433;-58
2024/01/03 06:51:27;;;;;;;1.13;1.03;;;;;;;-143.84;87.60;45216.63;5070875;28;20437;-58
2024/01/03 06:53:55;;;;;;;1.33;1.13;;;;;;;-143.84;87.25;45157.59;5069942;28;20445;-58
2024/01/03 06:56:23;;;;;;;0.90;0.80;;;;;;;-143.84;86.96;45169.03;5070530;28;21013;-58
2024/01/03 06:58:52;;;;;;;1.83;0.73;;;;;;;-143.84;86.58;45176.66;5070871;28;21030;-58
2024/01/03 07:01:19;;;;;;;2.30;2.20;;;;;;;-143.84;86.54;45184.25;5070425;28;20441;-58
2024/01/03 07:03:46;;;;;;;0.97;0.67;;;;;;;-143.84;86.47;45161.41;5070696;28;20917;-58
2024/01/03 07:06:14;;;;;;;1.00;0.70;;;;;;;-143.84;86.28;45184.25;5070589;28;20444;-58
2024/01/03 07:08:41;;;;;;;1.00;0.80;;;;;;;-143.84;86.12;45199.50;5070217;28;20441;-58
2024/01/03 07:11:09;;;;;;;0.90;0.80;;;;;;;-143.84;85.84;45188.06;5070167;28;20525;-58
2024/01/03 07:13:36;;;;;;;3.10;1.23;;;;;;;-143.84;85.30;45172.84;5070765;28;20448;-58
2024/01/03 07:16:05;;;;;;;1.50;1.33;;;;;;;-143.84;85.34;45159.50;5070251;28;20440;-58
2024/01/03 07:18:32;;;;;;;1.10;0.80;;;;;;;-143.84;85.29;45169.03;5070117;28;20485;-58
2024/01/03 07:20:59;;;;;;;1.50;1.40;;;;;;;-143.84;85.25;45167.13;5070328;28;20492;-58
2024/01/03 07:23:26;;;;;;;0.80;0.50;;;;;;;-143.84;84.95;45178.56;5070106;28;20541;-58
2024/01/03 07:25:53;;;;;;;0.80;0.50;;;;;;;-143.84;84.51;45178.56;5070266;28;20449;-58
2024/01/03 07:28:20;;;;;;;1.47;1.37;;;;;;;-143.84;84.18;45174.75;5070273;28;20441;-58
2024/01/03 07:30:47;;;;;;;1.23;1.13;;;;;;;-143.84;83.99;45172.84;5069821;28;20433;-58
2024/01/03 07:33:16;;;;;;;1.30;1.20;;;;;;;-143.84;83.31;45176.66;5070115;28;20441;-58
2024/01/03 07:35:43;;;;;;;1.23;1.13;;;;;;;-143.84;83.16;45159.50;5069656;28;20437;-58
2024/01/03 07:38:10;;;;;;;0.80;0.50;;;;;;;-143.84;82.98;45174.75;5069738;28;20429;-58
2024/01/03 07:40:37;;;;;;;1.80;1.67;;;;;;;-143.84;82.54;45174.75;5069671;28;20449;-58
2024/01/03 07:43:05;;;;;;;1.10;0.97;;;;;;;-143.84;82.78;45172.84;5069676;28;20551;-59
2024/01/03 07:45:32;;;;;;;1.40;0.97;;;;;;;-143.84;82.63;45178.56;5069672;28;20514;-58
2024/01/03 07:47:59;;;;;;;1.63;1.53;;;;;;;-143.84;82.32;45195.69;5070068;28;20863;-58
2024/01/03 07:50:27;;;;;;;1.00;0.90;;;;;;;-143.84;81.55;45178.56;5069776;28;20538;-58
2024/01/03 07:52:55;;;;;;;1.47;1.37;;;;;;;-143.84;81.42;45189.97;5069698;28;20444;-58
2024/01/03 07:55:22;;;;;;;0.90;0.70;;;;;;;-143.84;81.53;45169.03;5069645;28;20961;-58
2024/01/03 07:57:49;;;;;;;0.93;0.83;;;;;;;-143.84;81.50;45167.13;5069737;28;20440;-58
2024/01/03 08:00:17;;;;;;;0.80;0.60;;;;;;;-143.84;81.44;45174.75;5069646;28;21111;-58
2024/01/03 08:02:44;;;;;;;1.53;1.13;;;;;;;-143.84;81.45;45180.47;5069192;28;20503;-58
2024/01/03 08:05:11;;;;;;;2.60;2.40;;;;;;;-143.84;81.22;45146.19;5068907;28;20433;-58
2024/01/03 08:07:40;;;;;;;1.30;1.20;;;;;;;-143.84;81.15;45165.22;5069580;28;20433;-58
2024/01/03 08:10:08;;;;;;;1.27;1.17;;;;;;;-143.84;81.54;45189.97;5069633;28;20440;-58
2024/01/03 08:12:36;;;;;;;1.10;0.87;;;;;;;-143.84;81.56;45167.13;5069338;28;20503;-59
2024/01/03 08:15:04;;;;;;;0.90;0.80;;;;;;;-143.84;82.28;45161.41;5069729;28;20542;-58
2024/01/03 08:17:31;;;;;;;1.63;0.87;;;;;;;-143.84;82.16;45189.97;5069231;28;20478;-59
2024/01/03 08:19:58;;;;;;;0.90;0.80;;;;;;;-143.84;82.42;45155.69;5069231;28;21063;-58
2024/01/03 08:22:26;;;;;;;0.80;0.50;;;;;;;-143.84;82.57;45170.94;5069610;28;20476;-58
2024/01/03 08:24:54;;;;;;;0.80;0.47;;;;;;;-143.84;83.14;45178.56;5069169;28;20482;-58
2024/01/03 08:27:22;;;;;;;1.57;1.47;;;;;;;-143.84;83.60;45184.25;5069085;28;20428;-58
2024/01/03 08:29:49;;;;;;;0.80;0.50;;;;;;;-143.84;83.57;45178.56;5069201;28;20436;-58
2024/01/03 08:32:16;;;;;;;1.67;1.57;;;;;;;-143.84;83.63;45167.13;5069184;28;20457;-58
2024/01/03 08:34:46;;;;;;;0.80;0.67;;;;;;;-143.84;83.63;45182.38;5069254;28;20437;-58
2024/01/03 08:37:13;;;;;;;0.80;0.53;;;;;;;-143.84;83.63;45191.88;5069333;28;20520;-58
2024/01/03 08:39:41;;;;;;;2.90;1.40;;;;;;;-143.84;83.32;45151.91;5069548;28;20510;-58
2024/01/03 08:42:09;;;;;;;2.30;1.47;;;;;;;-143.84;83.75;45172.84;5068923;28;20487;-58
2024/01/03 08:44:36;;;;;;;0.80;0.60;;;;;;;-143.84;83.75;45195.69;5068758;28;20977;-58
2024/01/03 08:47:04;;;;;;;2.60;1.87;;;;;;;-143.84;83.96;45172.84;5068983;28;20456;-58
2024/01/03 08:49:31;;;;;;;1.67;1.00;;;;;;;-143.84;83.83;45176.66;5069482;28;20502;-58
2024/01/03 08:51:58;;;;;;;3.70;1.13;;;;;;;-143.84;83.76;45170.94;5068879;28;20506;-58
2024/01/03 08:54:25;;;;;;;1.60;1.50;;;;;;;-143.84;83.63;45165.22;5069349;28;20448;-58
2024/01/03 08:56:53;;;;;;;1.10;0.70;;;;;;;-143.84;83.24;45184.25;5069106;28;20448;-58
2024/01/03 08:59:21;;;;;;;1.63;1.47;;;;;;;-143.84;83.18;45170.94;5068980;28;20876;-58
2024/01/03 09:01:52;;;;;;;1.53;1.37;;;;;;;-143.84;83.45;45172.84;5068818;28;20449;-58
2024/01/03 09:04:19;;;;;;;1.63;1.53;;;;;;;-143.84;83.70;45167.13;5068997;28;20511;-58
2024/01/03 09:06:47;;;;;;;3.33;2.20;;;;;;;-143.84;83.34;45186.16;5069014;28;20445;-58
2024/01/03 09:09:15;;;;;;;1.30;1.10;;;;;;;-143.84;83.01;45161.41;5069218;28;20444;-58
2024/01/03 09:11:42;;;;;;;1.30;1.03;;;;;;;-143.84;83.36;45167.13;5068755;28;20433;-59
2024/01/03 09:14:09;;;;;;;1.60;1.20;;;;;;;-143.84;83.24;45172.84;5068862;28;20441;-58
2024/01/03 09:16:39;;;;;;;6.10;1.17;;;;;;;-143.84;83.66;45155.69;5070578;28;20429;-58
2024/01/03 09:19:06;;;;;;;2.80;1.03;;;;;;;-143.84;83.96;45170.94;5072495;28;20487;-58
2024/01/03 09:21:33;;;;;;;1.10;1.00;;;;;;;-143.84;83.67;45136.66;5072471;28;20449;-58
2024/01/03 09:24:01;;;;;;;0.80;0.60;;;;;;;-143.84;83.98;45180.47;5072164;28;20480;-58
2024/01/03 09:26:28;;;;;;;0.80;0.70;;;;;;;-143.84;83.92;45159.50;5072392;28;20508;-58
2024/01/03 09:28:55;;;;;;;1.50;1.10;;;;;;;-143.84;84.05;45146.19;5072426;28;20957;-58
2024/01/03 09:31:22;;;;;;;1.40;0.83;;;;;;;-143.84;84.00;45167.13;5072245;28;20510;-58
2024/01/03 09:33:51;;;;;;;3.23;1.40;;;;;;;-143.84;83.63;45163.31;5071914;28;20440;-58
2024/01/03 09:36:19;;;;;;;1.23;1.10;;;;;;;-143.84;83.56;45191.88;5072509;28;20520;-58
2024/01/03 09:38:47;;;;;;;13.17;1.17;;;;;;;-143.84;83.50;45174.75;5071916;28;20462;-58
2024/01/03 09:41:15;;;;;;;2.27;1.83;;;;;;;-143.84;83.84;45178.56;5072040;28;20958;-58
2024/01/03 09:43:42;;;;;;;1.97;1.33;;;;;;;-143.84;83.69;45157.59;5071974;28;20476;-58
2024/01/03 09:46:11;;;;;;;3.73;2.27;;;;;;;-143.84;83.61;45159.50;5071955;28;20516;-58
2024/01/03 09:48:41;;;;;;;1.17;0.60;;;;;;;-143.84;83.42;45178.56;5071680;28;20432;-58
2024/01/03 09:51:10;;;;;;;3.07;1.60;;;;;;;-143.84;82.98;45176.66;5071955;28;21045;-58
2024/01/03 09:53:38;;;;;;;1.63;1.50;;;;;;;-143.84;83.35;45153.81;5072073;28;20763;-58
2024/01/03 09:56:06;;;;;;;2.07;1.90;;;;;;;-143.84;83.32;45155.69;5072018;28;20498;-58
2024/01/03 09:58:34;;;;;;;1.00;0.90;;;;;;;-143.84;83.32;45148.09;5071724;28;20445;-58
2024/01/03 10:01:01;;;;;;;1.10;0.80;;;;;;;-143.84;83.13;45191.88;5071652;28;20436;-58
2024/01/03 10:03:28;;;;;;;1.30;1.20;;;;;;;-143.84;83.53;45157.59;5071705;28;20476;-59
2024/01/03 10:06:06;;;;;;;1.57;1.43;;;;;;;-143.84;83.29;45165.22;5071366;28;20942;-58
2024/01/03 10:08:35;;;;;;;1.47;1.33;;;;;;;-143.84;83.18;45151.91;5071491;28;20441;-58
2024/01/03 10:11:02;;;;;;;1.30;1.10;;;;;;;-143.84;83.43;45151.91;5071397;28;20441;-58
2024/01/03 10:13:30;;;;;;;2.40;1.30;;;;;;;-143.84;83.56;45207.13;5071804;28;20440;-58
2024/01/03 10:16:04;;;;;;;4.53;3.60;;;;;;;-143.84;83.03;45170.94;5071143;28;20444;-58
2024/01/03 10:18:32;;;;;;;1.00;0.90;;;;;;;-143.84;82.89;45161.41;5071030;28;20989;-58
2024/01/03 10:21:12;;;;;;;0.90;0.77;;;;;;;-143.84;81.87;45174.75;5071603;28;20884;-58
2024/01/03 10:23:42;;;;;;;1.07;0.97;;;;;;;-143.84;80.87;45180.47;5071365;28;20488;-58
2024/01/03 10:26:09;;;;;;;1.57;1.47;;;;;;;-143.84;80.37;45167.13;5071536;28;20480;-58
2024/01/03 10:28:37;;;;;;;2.60;0.70;;;;;;;-143.84;79.59;45148.09;5070963;28;20436;-58
2024/01/03 10:31:07;;;;;;;1.27;0.80;;;;;;;-143.84;79.16;45151.91;5071109;28;20437;-58
2024/01/03 10:33:35;;;;;;;0.90;0.80;;;;;;;-143.84;78.88;45170.94;5071694;28;20520;-58
2024/01/03 10:36:11;;;;;;;1.10;0.97;;;;;;;-143.84;78.51;45165.22;5071159;28;20480;-59
2024/01/03 10:38:40;;;;;;;1.57;1.10;;;;;;;-143.84;77.20;45176.66;5070944;28;21203;-58
2024/01/03 10:41:09;;;;;;;1.53;1.43;;;;;;;-143.84;77.16;45170.94;5071361;28;20452;-58
2024/01/03 10:43:37;;;;;;;0.83;0.60;;;;;;;-143.84;77.41;45172.84;5070958;28;20546;-58
2024/01/03 10:46:06;;;;;;;2.20;1.47;;;;;;;-143.84;77.42;45151.91;5070931;28;20498;-59
2024/01/03 10:48:33;;;;;;;2.30;0.70;;;;;;;-143.84;76.80;45163.31;5070848;28;21008;-58
2024/01/03 10:51:01;;;;;;;2.03;1.80;;;;;;;-143.84;76.97;45127.13;5070620;28;20448;-58
2024/01/03 10:53:35;;;;;;;1.10;0.87;;;;;;;-143.84;77.20;45169.03;5070432;28;21085;-58
2024/01/03 10:56:04;;;;;;;0.80;0.50;;;;;;;-143.84;76.72;45172.84;5070406;28;20475;-58
2024/01/03 10:58:32;;;;;;;1.60;1.23;;;;;;;-143.84;76.75;45172.84;5070627;28;20916;-58
2024/01/03 11:01:07;;;;;;;1.33;1.00;;;;;;;-143.84;76.70;45167.13;5070201;28;20456;-58
2024/01/03 11:03:43;;;;;;;1.70;1.13;;;;;;;-143.84;76.52;45165.22;5069278;28;20557;-58
2024/01/03 11:06:18;;;;;;;1.87;1.77;;;;;;;-143.84;76.62;45169.03;5069987;28;20433;-58
2024/01/03 11:08:50;;;;;;;1.57;1.20;;;;;;;-143.84;76.68;45172.84;5070634;28;20800;-58
2024/01/03 11:11:31;;;;;;;1.63;1.10;;;;;;;-143.84;76.73;45174.75;5070302;28;20876;-58
2024/01/03 11:13:59;;;;;;;0.90;0.60;;;;;;;-143.84;76.99;45157.59;5070401;28;20444;-59
2024/01/03 11:16:37;;;;;;;0.90;0.80;;;;;;;-143.84;77.67;45191.88;5070381;28;20452;-58
2024/01/03 11:19:05;;;;;;;1.53;1.43;;;;;;;-143.84;77.44;45142.38;5069879;28;20476;-58
2024/01/03 11:21:40;;;;;;;0.80;0.70;;;;;;;-143.84;76.99;45165.22;5070423;28;20528;-58